sensor_id;sensor_type;location;lat;lon;timestamp;P1;durP1;ratioP1;P2;durP2;ratioP2
74577;SDS011;63173;49.086;33.418;2023-06-22T00:00:47;21.52;;;12.02;;
74577;SDS011;63173;49.086;33.418;2023-06-22T00:03:13;27.65;;;12.10;;
74577;SDS011;63173;49.086;33.418;2023-06-22T00:05:38;22.40;;;12.02;;
74577;SDS011;63173;49.086;33.418;2023-06-22T00:08:04;18.85;;;10.95;;
74577;SDS011;63173;49.086;33.418;2023-06-22T00:10:30;19.63;;;11.95;;
74577;SDS011;63173;49.086;33.418;2023-06-22T00:12:55;20.13;;;11.50;;
74577;SDS011;63173;49.086;33.418;2023-06-22T00:15:21;23.75;;;11.52;;
74577;SDS011;63173;49.086;33.418;2023-06-22T00:17:46;18.58;;;10.88;;
74577;SDS011;63173;49.086;33.418;2023-06-22T00:20:11;16.35;;;9.93;;
74577;SDS011;63173;49.086;33.418;2023-06-22T00:22:38;15.38;;;9.90;;
74577;SDS011;63173;49.086;33.418;2023-06-22T00:25:05;18.33;;;10.38;;
74577;SDS011;63173;49.086;33.418;2023-06-22T00:27:34;19.35;;;9.68;;
74577;SDS011;63173;49.086;33.418;2023-06-22T00:30:00;14.40;;;9.48;;
74577;SDS011;63173;49.086;33.418;2023-06-22T00:32:26;14.57;;;9.10;;
74577;SDS011;63173;49.086;33.418;2023-06-22T00:34:51;13.48;;;9.27;;
74577;SDS011;63173;49.086;33.418;2023-06-22T00:37:17;13.57;;;9.38;;
74577;SDS011;63173;49.086;33.418;2023-06-22T00:39:43;14.10;;;9.65;;
74577;SDS011;63173;49.086;33.418;2023-06-22T00:42:08;13.88;;;9.18;;
74577;SDS011;63173;49.086;33.418;2023-06-22T00:44:34;16.13;;;9.82;;
74577;SDS011;63173;49.086;33.418;2023-06-22T00:47:00;16.88;;;10.48;;
74577;SDS011;63173;49.086;33.418;2023-06-22T00:49:27;15.00;;;9.07;;
74577;SDS011;63173;49.086;33.418;2023-06-22T00:51:53;14.55;;;9.38;;
74577;SDS011;63173;49.086;33.418;2023-06-22T00:54:19;18.27;;;10.85;;
74577;SDS011;63173;49.086;33.418;2023-06-22T00:56:50;15.52;;;10.00;;
74577;SDS011;63173;49.086;33.418;2023-06-22T00:59:19;18.23;;;10.88;;
74577;SDS011;63173;49.086;33.418;2023-06-22T01:01:45;14.73;;;9.70;;
74577;SDS011;63173;49.086;33.418;2023-06-22T01:04:11;15.75;;;10.13;;
74577;SDS011;63173;49.086;33.418;2023-06-22T01:06:38;16.45;;;9.35;;
74577;SDS011;63173;49.086;33.418;2023-06-22T01:09:20;14.68;;;9.77;;
74577;SDS011;63173;49.086;33.418;2023-06-22T01:11:53;16.33;;;9.82;;
74577;SDS011;63173;49.086;33.418;2023-06-22T01:14:27;18.75;;;10.60;;
74577;SDS011;63173;49.086;33.418;2023-06-22T01:17:00;14.63;;;9.35;;
74577;SDS011;63173;49.086;33.418;2023-06-22T01:19:46;15.55;;;9.57;;
74577;SDS011;63173;49.086;33.418;2023-06-22T01:22:21;17.65;;;9.98;;
74577;SDS011;63173;49.086;33.418;2023-06-22T01:27:40;14.93;;;9.75;;
74577;SDS011;63173;49.086;33.418;2023-06-22T01:30:21;14.65;;;9.25;;
74577;SDS011;63173;49.086;33.418;2023-06-22T01:32:50;17.55;;;9.95;;
74577;SDS011;63173;49.086;33.418;2023-06-22T01:35:17;14.57;;;9.25;;
74577;SDS011;63173;49.086;33.418;2023-06-22T01:37:45;12.77;;;8.65;;
74577;SDS011;63173;49.086;33.418;2023-06-22T01:40:10;15.80;;;9.82;;
74577;SDS011;63173;49.086;33.418;2023-06-22T01:42:37;13.38;;;8.93;;
74577;SDS011;63173;49.086;33.418;2023-06-22T01:45:04;13.30;;;8.45;;
74577;SDS011;63173;49.086;33.418;2023-06-22T01:47:31;18.70;;;9.30;;
74577;SDS011;63173;49.086;33.418;2023-06-22T01:49:57;14.23;;;9.23;;
74577;SDS011;63173;49.086;33.418;2023-06-22T01:52:23;13.88;;;8.77;;
74577;SDS011;63173;49.086;33.418;2023-06-22T01:54:48;11.65;;;8.80;;
74577;SDS011;63173;49.086;33.418;2023-06-22T01:57:14;14.10;;;8.50;;
74577;SDS011;63173;49.086;33.418;2023-06-22T02:02:14;14.88;;;7.78;;
74577;SDS011;63173;49.086;33.418;2023-06-22T02:04:44;11.43;;;7.95;;
74577;SDS011;63173;49.086;33.418;2023-06-22T02:07:14;12.30;;;7.68;;
74577;SDS011;63173;49.086;33.418;2023-06-22T02:09:45;13.85;;;7.80;;
74577;SDS011;63173;49.086;33.418;2023-06-22T02:12:15;12.73;;;8.15;;
74577;SDS011;63173;49.086;33.418;2023-06-22T02:14:43;13.40;;;8.82;;
74577;SDS011;63173;49.086;33.418;2023-06-22T02:17:11;12.25;;;8.10;;
74577;SDS011;63173;49.086;33.418;2023-06-22T02:19:38;14.88;;;8.63;;
74577;SDS011;63173;49.086;33.418;2023-06-22T02:24:31;15.90;;;8.40;;
74577;SDS011;63173;49.086;33.418;2023-06-22T02:26:58;12.38;;;7.88;;
74577;SDS011;63173;49.086;33.418;2023-06-22T02:29:25;15.35;;;8.85;;
74577;SDS011;63173;49.086;33.418;2023-06-22T02:31:52;14.85;;;8.98;;
74577;SDS011;63173;49.086;33.418;2023-06-22T02:34:17;16.65;;;8.52;;
74577;SDS011;63173;49.086;33.418;2023-06-22T02:36:46;16.67;;;8.82;;
74577;SDS011;63173;49.086;33.418;2023-06-22T02:39:19;12.88;;;8.18;;
74577;SDS011;63173;49.086;33.418;2023-06-22T02:41:47;15.60;;;8.75;;
74577;SDS011;63173;49.086;33.418;2023-06-22T02:44:12;13.82;;;8.50;;
74577;SDS011;63173;49.086;33.418;2023-06-22T02:46:38;15.98;;;8.55;;
74577;SDS011;63173;49.086;33.418;2023-06-22T02:49:03;14.93;;;8.77;;
74577;SDS011;63173;49.086;33.418;2023-06-22T02:51:30;17.85;;;8.52;;
74577;SDS011;63173;49.086;33.418;2023-06-22T02:53:58;15.23;;;8.73;;
74577;SDS011;63173;49.086;33.418;2023-06-22T02:56:24;20.27;;;8.27;;
74577;SDS011;63173;49.086;33.418;2023-06-22T02:58:49;13.73;;;8.32;;
74577;SDS011;63173;49.086;33.418;2023-06-22T03:01:15;15.07;;;7.82;;
74577;SDS011;63173;49.086;33.418;2023-06-22T03:03:40;19.65;;;8.48;;
74577;SDS011;63173;49.086;33.418;2023-06-22T03:06:06;17.10;;;7.90;;
74577;SDS011;63173;49.086;33.418;2023-06-22T03:08:31;12.82;;;7.15;;
74577;SDS011;63173;49.086;33.418;2023-06-22T03:10:57;13.13;;;7.65;;
74577;SDS011;63173;49.086;33.418;2023-06-22T03:13:22;13.02;;;7.55;;
74577;SDS011;63173;49.086;33.418;2023-06-22T03:15:48;18.13;;;7.55;;
74577;SDS011;63173;49.086;33.418;2023-06-22T03:18:14;16.38;;;7.97;;
74577;SDS011;63173;49.086;33.418;2023-06-22T03:20:40;12.50;;;7.72;;
74577;SDS011;63173;49.086;33.418;2023-06-22T03:23:06;11.80;;;7.40;;
74577;SDS011;63173;49.086;33.418;2023-06-22T03:25:31;16.92;;;7.70;;
74577;SDS011;63173;49.086;33.418;2023-06-22T03:27:58;13.85;;;7.50;;
74577;SDS011;63173;49.086;33.418;2023-06-22T03:30:25;14.25;;;8.05;;
74577;SDS011;63173;49.086;33.418;2023-06-22T03:32:50;11.80;;;7.38;;
74577;SDS011;63173;49.086;33.418;2023-06-22T03:35:16;14.98;;;7.70;;
74577;SDS011;63173;49.086;33.418;2023-06-22T03:37:41;12.60;;;7.65;;
74577;SDS011;63173;49.086;33.418;2023-06-22T03:40:07;11.98;;;7.07;;
74577;SDS011;63173;49.086;33.418;2023-06-22T03:42:33;21.67;;;8.73;;
74577;SDS011;63173;49.086;33.418;2023-06-22T03:45:01;17.92;;;8.57;;
74577;SDS011;63173;49.086;33.418;2023-06-22T03:47:26;21.80;;;8.63;;
74577;SDS011;63173;49.086;33.418;2023-06-22T03:49:52;17.52;;;8.45;;
74577;SDS011;63173;49.086;33.418;2023-06-22T03:52:20;16.17;;;8.38;;
74577;SDS011;63173;49.086;33.418;2023-06-22T03:54:47;12.60;;;7.50;;
74577;SDS011;63173;49.086;33.418;2023-06-22T03:57:12;18.80;;;8.45;;
74577;SDS011;63173;49.086;33.418;2023-06-22T03:59:38;17.33;;;7.85;;
74577;SDS011;63173;49.086;33.418;2023-06-22T04:02:03;19.23;;;8.43;;
74577;SDS011;63173;49.086;33.418;2023-06-22T04:04:29;19.10;;;8.07;;
74577;SDS011;63173;49.086;33.418;2023-06-22T04:06:54;18.35;;;7.60;;
74577;SDS011;63173;49.086;33.418;2023-06-22T04:09:20;13.10;;;8.30;;
74577;SDS011;63173;49.086;33.418;2023-06-22T04:11:46;15.93;;;8.32;;
74577;SDS011;63173;49.086;33.418;2023-06-22T04:14:12;21.05;;;8.65;;
74577;SDS011;63173;49.086;33.418;2023-06-22T04:16:37;14.95;;;8.02;;
74577;SDS011;63173;49.086;33.418;2023-06-22T04:19:03;14.98;;;9.32;;
74577;SDS011;63173;49.086;33.418;2023-06-22T04:21:28;17.30;;;9.02;;
74577;SDS011;63173;49.086;33.418;2023-06-22T04:23:54;19.08;;;8.50;;
74577;SDS011;63173;49.086;33.418;2023-06-22T04:26:19;19.38;;;8.98;;
74577;SDS011;63173;49.086;33.418;2023-06-22T04:28:46;13.93;;;8.20;;
74577;SDS011;63173;49.086;33.418;2023-06-22T04:31:16;16.52;;;8.70;;
74577;SDS011;63173;49.086;33.418;2023-06-22T04:33:43;13.80;;;8.07;;
74577;SDS011;63173;49.086;33.418;2023-06-22T04:36:08;14.90;;;7.65;;
74577;SDS011;63173;49.086;33.418;2023-06-22T04:38:33;25.55;;;8.63;;
74577;SDS011;63173;49.086;33.418;2023-06-22T04:40:59;23.05;;;8.32;;
74577;SDS011;63173;49.086;33.418;2023-06-22T04:43:26;22.75;;;8.05;;
74577;SDS011;63173;49.086;33.418;2023-06-22T04:45:55;24.85;;;8.73;;
74577;SDS011;63173;49.086;33.418;2023-06-22T04:48:22;26.20;;;8.68;;
74577;SDS011;63173;49.086;33.418;2023-06-22T04:50:47;32.55;;;8.48;;
74577;SDS011;63173;49.086;33.418;2023-06-22T04:53:12;17.60;;;7.72;;
74577;SDS011;63173;49.086;33.418;2023-06-22T04:55:39;20.60;;;8.15;;
74577;SDS011;63173;49.086;33.418;2023-06-22T04:58:06;23.60;;;8.13;;
74577;SDS011;63173;49.086;33.418;2023-06-22T05:00:32;13.43;;;7.63;;
74577;SDS011;63173;49.086;33.418;2023-06-22T05:03:01;19.52;;;7.38;;
74577;SDS011;63173;49.086;33.418;2023-06-22T05:05:28;24.92;;;8.00;;
74577;SDS011;63173;49.086;33.418;2023-06-22T05:07:56;20.85;;;7.55;;
74577;SDS011;63173;49.086;33.418;2023-06-22T05:10:24;14.02;;;6.95;;
74577;SDS011;63173;49.086;33.418;2023-06-22T05:12:50;15.02;;;7.05;;
74577;SDS011;63173;49.086;33.418;2023-06-22T05:15:16;19.48;;;8.15;;
74577;SDS011;63173;49.086;33.418;2023-06-22T05:17:41;20.90;;;7.82;;
74577;SDS011;63173;49.086;33.418;2023-06-22T05:20:10;14.10;;;7.22;;
74577;SDS011;63173;49.086;33.418;2023-06-22T05:22:36;15.82;;;6.18;;
74577;SDS011;63173;49.086;33.418;2023-06-22T05:25:02;16.75;;;7.22;;
74577;SDS011;63173;49.086;33.418;2023-06-22T05:27:28;15.95;;;6.95;;
74577;SDS011;63173;49.086;33.418;2023-06-22T05:29:53;13.50;;;6.38;;
74577;SDS011;63173;49.086;33.418;2023-06-22T05:32:19;15.35;;;6.78;;
74577;SDS011;63173;49.086;33.418;2023-06-22T05:34:44;12.13;;;6.53;;
74577;SDS011;63173;49.086;33.418;2023-06-22T05:37:10;13.10;;;7.03;;
74577;SDS011;63173;49.086;33.418;2023-06-22T05:39:35;16.33;;;7.75;;
74577;SDS011;63173;49.086;33.418;2023-06-22T05:42:04;14.93;;;6.32;;
74577;SDS011;63173;49.086;33.418;2023-06-22T05:44:32;12.38;;;6.43;;
74577;SDS011;63173;49.086;33.418;2023-06-22T05:46:58;12.68;;;6.50;;
74577;SDS011;63173;49.086;33.418;2023-06-22T05:49:24;17.88;;;7.05;;
74577;SDS011;63173;49.086;33.418;2023-06-22T05:51:54;13.52;;;6.93;;
74577;SDS011;63173;49.086;33.418;2023-06-22T05:54:20;17.05;;;7.22;;
74577;SDS011;63173;49.086;33.418;2023-06-22T05:56:45;14.23;;;7.22;;
74577;SDS011;63173;49.086;33.418;2023-06-22T05:59:11;12.23;;;7.05;;
74577;SDS011;63173;49.086;33.418;2023-06-22T06:01:37;14.50;;;7.35;;
74577;SDS011;63173;49.086;33.418;2023-06-22T06:04:03;11.57;;;6.22;;
74577;SDS011;63173;49.086;33.418;2023-06-22T06:06:29;18.13;;;6.38;;
74577;SDS011;63173;49.086;33.418;2023-06-22T06:08:54;14.55;;;6.68;;
74577;SDS011;63173;49.086;33.418;2023-06-22T06:11:21;16.15;;;7.32;;
74577;SDS011;63173;49.086;33.418;2023-06-22T06:13:47;16.90;;;6.72;;
74577;SDS011;63173;49.086;33.418;2023-06-22T06:16:12;16.15;;;6.03;;
74577;SDS011;63173;49.086;33.418;2023-06-22T06:18:38;10.30;;;6.00;;
74577;SDS011;63173;49.086;33.418;2023-06-22T06:21:03;13.93;;;5.70;;
74577;SDS011;63173;49.086;33.418;2023-06-22T06:23:29;13.52;;;6.65;;
74577;SDS011;63173;49.086;33.418;2023-06-22T06:25:54;11.52;;;6.68;;
74577;SDS011;63173;49.086;33.418;2023-06-22T06:28:19;12.10;;;6.47;;
74577;SDS011;63173;49.086;33.418;2023-06-22T06:30:45;13.27;;;6.55;;
74577;SDS011;63173;49.086;33.418;2023-06-22T06:33:12;20.00;;;7.20;;
74577;SDS011;63173;49.086;33.418;2023-06-22T06:35:38;9.55;;;5.82;;
74577;SDS011;63173;49.086;33.418;2023-06-22T06:38:03;10.13;;;5.60;;
74577;SDS011;63173;49.086;33.418;2023-06-22T06:40:29;9.95;;;7.07;;
74577;SDS011;63173;49.086;33.418;2023-06-22T06:42:54;10.18;;;5.45;;
74577;SDS011;63173;49.086;33.418;2023-06-22T06:45:20;11.15;;;5.30;;
74577;SDS011;63173;49.086;33.418;2023-06-22T06:47:50;11.32;;;5.45;;
74577;SDS011;63173;49.086;33.418;2023-06-22T06:50:17;8.27;;;5.72;;
74577;SDS011;63173;49.086;33.418;2023-06-22T06:52:43;16.63;;;5.32;;
74577;SDS011;63173;49.086;33.418;2023-06-22T06:55:09;10.25;;;4.97;;
74577;SDS011;63173;49.086;33.418;2023-06-22T06:57:39;10.48;;;5.18;;
74577;SDS011;63173;49.086;33.418;2023-06-22T07:00:09;12.95;;;5.45;;
74577;SDS011;63173;49.086;33.418;2023-06-22T07:02:38;12.68;;;6.00;;
74577;SDS011;63173;49.086;33.418;2023-06-22T07:05:08;8.38;;;4.82;;
74577;SDS011;63173;49.086;33.418;2023-06-22T07:07:34;9.50;;;5.43;;
74577;SDS011;63173;49.086;33.418;2023-06-22T07:10:00;8.98;;;4.90;;
74577;SDS011;63173;49.086;33.418;2023-06-22T07:12:26;10.82;;;4.82;;
74577;SDS011;63173;49.086;33.418;2023-06-22T07:14:51;11.55;;;4.60;;
74577;SDS011;63173;49.086;33.418;2023-06-22T07:17:17;10.50;;;6.03;;
74577;SDS011;63173;49.086;33.418;2023-06-22T07:19:43;14.23;;;6.10;;
74577;SDS011;63173;49.086;33.418;2023-06-22T07:22:08;13.50;;;5.78;;
74577;SDS011;63173;49.086;33.418;2023-06-22T07:24:34;11.88;;;5.07;;
74577;SDS011;63173;49.086;33.418;2023-06-22T07:26:59;11.70;;;4.88;;
74577;SDS011;63173;49.086;33.418;2023-06-22T07:29:25;11.13;;;4.93;;
74577;SDS011;63173;49.086;33.418;2023-06-22T07:31:52;6.57;;;4.40;;
74577;SDS011;63173;49.086;33.418;2023-06-22T07:34:18;9.13;;;4.10;;
74577;SDS011;63173;49.086;33.418;2023-06-22T07:36:44;11.15;;;4.50;;
74577;SDS011;63173;49.086;33.418;2023-06-22T07:39:10;6.75;;;4.25;;
74577;SDS011;63173;49.086;33.418;2023-06-22T07:41:36;10.13;;;4.63;;
74577;SDS011;63173;49.086;33.418;2023-06-22T07:44:02;7.35;;;4.35;;
74577;SDS011;63173;49.086;33.418;2023-06-22T07:46:28;10.35;;;4.40;;
74577;SDS011;63173;49.086;33.418;2023-06-22T07:48:55;8.40;;;4.50;;
74577;SDS011;63173;49.086;33.418;2023-06-22T07:51:21;12.80;;;4.90;;
74577;SDS011;63173;49.086;33.418;2023-06-22T07:53:47;8.25;;;4.00;;
74577;SDS011;63173;49.086;33.418;2023-06-22T07:56:13;9.95;;;4.13;;
74577;SDS011;63173;49.086;33.418;2023-06-22T07:58:43;11.93;;;4.70;;
74577;SDS011;63173;49.086;33.418;2023-06-22T08:01:09;7.18;;;4.07;;
74577;SDS011;63173;49.086;33.418;2023-06-22T08:03:34;8.82;;;4.20;;
74577;SDS011;63173;49.086;33.418;2023-06-22T08:06:00;8.32;;;4.10;;
74577;SDS011;63173;49.086;33.418;2023-06-22T08:08:25;9.45;;;4.28;;
74577;SDS011;63173;49.086;33.418;2023-06-22T08:10:50;8.55;;;4.32;;
74577;SDS011;63173;49.086;33.418;2023-06-22T08:13:16;10.65;;;6.10;;
74577;SDS011;63173;49.086;33.418;2023-06-22T08:15:41;8.63;;;4.50;;
74577;SDS011;63173;49.086;33.418;2023-06-22T08:18:07;9.38;;;4.80;;
74577;SDS011;63173;49.086;33.418;2023-06-22T08:20:32;6.05;;;3.92;;
74577;SDS011;63173;49.086;33.418;2023-06-22T08:22:58;6.97;;;4.00;;
74577;SDS011;63173;49.086;33.418;2023-06-22T08:25:30;9.57;;;4.00;;
74577;SDS011;63173;49.086;33.418;2023-06-22T08:27:55;14.80;;;3.83;;
74577;SDS011;63173;49.086;33.418;2023-06-22T08:30:22;8.38;;;3.38;;
74577;SDS011;63173;49.086;33.418;2023-06-22T08:32:47;8.02;;;3.47;;
74577;SDS011;63173;49.086;33.418;2023-06-22T08:35:13;8.32;;;3.40;;
74577;SDS011;63173;49.086;33.418;2023-06-22T08:37:38;6.05;;;3.25;;
74577;SDS011;63173;49.086;33.418;2023-06-22T08:40:05;8.95;;;4.10;;
74577;SDS011;63173;49.086;33.418;2023-06-22T08:42:33;7.55;;;3.85;;
74577;SDS011;63173;49.086;33.418;2023-06-22T08:44:59;7.82;;;3.80;;
74577;SDS011;63173;49.086;33.418;2023-06-22T08:47:25;6.90;;;3.78;;
74577;SDS011;63173;49.086;33.418;2023-06-22T08:49:50;6.70;;;3.53;;
74577;SDS011;63173;49.086;33.418;2023-06-22T08:52:17;12.52;;;4.22;;
74577;SDS011;63173;49.086;33.418;2023-06-22T08:54:44;6.75;;;4.25;;
74577;SDS011;63173;49.086;33.418;2023-06-22T08:57:10;6.07;;;4.20;;
74577;SDS011;63173;49.086;33.418;2023-06-22T08:59:35;8.30;;;4.97;;
74577;SDS011;63173;49.086;33.418;2023-06-22T09:02:01;7.30;;;3.92;;
74577;SDS011;63173;49.086;33.418;2023-06-22T09:04:26;5.90;;;3.63;;
74577;SDS011;63173;49.086;33.418;2023-06-22T09:06:52;10.77;;;3.90;;
74577;SDS011;63173;49.086;33.418;2023-06-22T09:09:17;8.60;;;4.10;;
74577;SDS011;63173;49.086;33.418;2023-06-22T09:11:43;8.50;;;4.35;;
74577;SDS011;63173;49.086;33.418;2023-06-22T09:14:10;11.13;;;3.55;;
74577;SDS011;63173;49.086;33.418;2023-06-22T09:16:36;6.68;;;4.18;;
74577;SDS011;63173;49.086;33.418;2023-06-22T09:19:01;5.30;;;3.47;;
74577;SDS011;63173;49.086;33.418;2023-06-22T09:21:27;9.02;;;3.42;;
74577;SDS011;63173;49.086;33.418;2023-06-22T09:23:52;5.60;;;3.63;;
74577;SDS011;63173;49.086;33.418;2023-06-22T09:26:18;6.85;;;3.65;;
74577;SDS011;63173;49.086;33.418;2023-06-22T09:28:44;5.93;;;3.25;;
74577;SDS011;63173;49.086;33.418;2023-06-22T09:31:09;5.68;;;3.63;;
74577;SDS011;63173;49.086;33.418;2023-06-22T09:33:35;9.85;;;6.22;;
74577;SDS011;63173;49.086;33.418;2023-06-22T09:38:29;7.85;;;3.30;;
74577;SDS011;63173;49.086;33.418;2023-06-22T09:40:54;5.10;;;3.38;;
74577;SDS011;63173;49.086;33.418;2023-06-22T09:43:19;6.43;;;3.63;;
74577;SDS011;63173;49.086;33.418;2023-06-22T09:45:45;4.90;;;3.10;;
74577;SDS011;63173;49.086;33.418;2023-06-22T09:48:10;9.70;;;3.22;;
74577;SDS011;63173;49.086;33.418;2023-06-22T09:50:36;8.23;;;3.80;;
74577;SDS011;63173;49.086;33.418;2023-06-22T09:53:02;6.65;;;3.90;;
74577;SDS011;63173;49.086;33.418;2023-06-22T09:55:27;6.38;;;3.78;;
74577;SDS011;63173;49.086;33.418;2023-06-22T09:57:53;11.00;;;3.63;;
74577;SDS011;63173;49.086;33.418;2023-06-22T10:00:19;9.50;;;5.82;;
74577;SDS011;63173;49.086;33.418;2023-06-22T10:02:46;5.40;;;3.53;;
74577;SDS011;63173;49.086;33.418;2023-06-22T10:05:12;15.93;;;4.10;;
74577;SDS011;63173;49.086;33.418;2023-06-22T10:07:37;7.45;;;3.42;;
74577;SDS011;63173;49.086;33.418;2023-06-22T10:10:08;6.10;;;3.78;;
74577;SDS011;63173;49.086;33.418;2023-06-22T10:12:34;5.03;;;3.80;;
74577;SDS011;63173;49.086;33.418;2023-06-22T10:15:00;5.63;;;3.28;;
74577;SDS011;63173;49.086;33.418;2023-06-22T10:17:25;6.30;;;3.60;;
74577;SDS011;63173;49.086;33.418;2023-06-22T10:19:51;5.13;;;3.58;;
74577;SDS011;63173;49.086;33.418;2023-06-22T10:22:16;6.55;;;3.63;;
74577;SDS011;63173;49.086;33.418;2023-06-22T10:24:42;5.88;;;3.80;;
74577;SDS011;63173;49.086;33.418;2023-06-22T10:27:11;8.10;;;3.75;;
74577;SDS011;63173;49.086;33.418;2023-06-22T10:29:37;6.57;;;3.20;;
74577;SDS011;63173;49.086;33.418;2023-06-22T10:32:02;6.45;;;3.60;;
74577;SDS011;63173;49.086;33.418;2023-06-22T10:34:28;7.80;;;3.83;;
74577;SDS011;63173;49.086;33.418;2023-06-22T10:36:53;10.05;;;3.90;;
74577;SDS011;63173;49.086;33.418;2023-06-22T10:39:19;10.30;;;3.67;;
74577;SDS011;63173;49.086;33.418;2023-06-22T10:41:44;5.88;;;3.58;;
74577;SDS011;63173;49.086;33.418;2023-06-22T10:44:10;8.48;;;3.83;;
74577;SDS011;63173;49.086;33.418;2023-06-22T10:46:35;9.00;;;3.67;;
74577;SDS011;63173;49.086;33.418;2023-06-22T10:49:01;9.85;;;4.50;;
74577;SDS011;63173;49.086;33.418;2023-06-22T10:51:26;6.15;;;4.13;;
74577;SDS011;63173;49.086;33.418;2023-06-22T10:53:53;5.60;;;3.78;;
74577;SDS011;63173;49.086;33.418;2023-06-22T10:56:18;6.05;;;4.10;;
74577;SDS011;63173;49.086;33.418;2023-06-22T10:58:44;6.47;;;4.30;;
74577;SDS011;63173;49.086;33.418;2023-06-22T11:01:10;4.72;;;3.63;;
74577;SDS011;63173;49.086;33.418;2023-06-22T11:03:36;8.15;;;3.90;;
74577;SDS011;63173;49.086;33.418;2023-06-22T11:06:01;7.40;;;4.10;;
74577;SDS011;63173;49.086;33.418;2023-06-22T11:08:27;9.52;;;3.90;;
74577;SDS011;63173;49.086;33.418;2023-06-22T11:10:53;6.85;;;3.75;;
74577;SDS011;63173;49.086;33.418;2023-06-22T11:13:18;5.15;;;3.85;;
74577;SDS011;63173;49.086;33.418;2023-06-22T11:15:44;5.55;;;3.55;;
74577;SDS011;63173;49.086;33.418;2023-06-22T11:18:09;7.35;;;4.22;;
74577;SDS011;63173;49.086;33.418;2023-06-22T11:20:34;5.40;;;3.50;;
74577;SDS011;63173;49.086;33.418;2023-06-22T11:23:07;7.57;;;3.63;;
74577;SDS011;63173;49.086;33.418;2023-06-22T11:25:32;5.47;;;3.80;;
74577;SDS011;63173;49.086;33.418;2023-06-22T11:28:01;6.28;;;3.78;;
74577;SDS011;63173;49.086;33.418;2023-06-22T11:30:27;5.75;;;3.42;;
74577;SDS011;63173;49.086;33.418;2023-06-22T11:32:52;7.22;;;3.80;;
74577;SDS011;63173;49.086;33.418;2023-06-22T11:35:18;11.15;;;4.03;;
74577;SDS011;63173;49.086;33.418;2023-06-22T11:37:43;8.80;;;3.67;;
74577;SDS011;63173;49.086;33.418;2023-06-22T11:40:09;8.13;;;3.85;;
74577;SDS011;63173;49.086;33.418;2023-06-22T11:42:35;6.05;;;3.95;;
74577;SDS011;63173;49.086;33.418;2023-06-22T11:45:00;7.85;;;3.63;;
74577;SDS011;63173;49.086;33.418;2023-06-22T11:47:26;11.30;;;5.90;;
74577;SDS011;63173;49.086;33.418;2023-06-22T11:49:52;6.10;;;3.63;;
74577;SDS011;63173;49.086;33.418;2023-06-22T11:52:18;6.30;;;3.50;;
74577;SDS011;63173;49.086;33.418;2023-06-22T11:54:44;8.05;;;3.65;;
74577;SDS011;63173;49.086;33.418;2023-06-22T11:57:10;4.70;;;3.28;;
74577;SDS011;63173;49.086;33.418;2023-06-22T11:59:36;7.78;;;3.50;;
74577;SDS011;63173;49.086;33.418;2023-06-22T12:02:01;6.97;;;3.10;;
74577;SDS011;63173;49.086;33.418;2023-06-22T12:04:27;7.50;;;3.85;;
74577;SDS011;63173;49.086;33.418;2023-06-22T12:06:53;6.22;;;3.50;;
74577;SDS011;63173;49.086;33.418;2023-06-22T12:09:18;7.40;;;3.95;;
74577;SDS011;63173;49.086;33.418;2023-06-22T12:11:43;8.10;;;3.70;;
74577;SDS011;63173;49.086;33.418;2023-06-22T12:14:09;6.22;;;3.55;;
74577;SDS011;63173;49.086;33.418;2023-06-22T12:16:34;9.00;;;4.00;;
74577;SDS011;63173;49.086;33.418;2023-06-22T12:19:00;9.77;;;3.70;;
74577;SDS011;63173;49.086;33.418;2023-06-22T12:21:25;6.47;;;3.50;;
74577;SDS011;63173;49.086;33.418;2023-06-22T12:23:51;7.00;;;3.50;;
74577;SDS011;63173;49.086;33.418;2023-06-22T12:26:16;6.57;;;3.83;;
74577;SDS011;63173;49.086;33.418;2023-06-22T12:28:42;11.65;;;5.57;;
74577;SDS011;63173;49.086;33.418;2023-06-22T12:31:07;5.68;;;3.72;;
74577;SDS011;63173;49.086;33.418;2023-06-22T12:33:32;5.05;;;3.45;;
74577;SDS011;63173;49.086;33.418;2023-06-22T12:35:58;4.85;;;3.53;;
74577;SDS011;63173;49.086;33.418;2023-06-22T12:38:23;6.57;;;3.42;;
74577;SDS011;63173;49.086;33.418;2023-06-22T12:40:50;9.57;;;3.90;;
74577;SDS011;63173;49.086;33.418;2023-06-22T12:43:16;5.50;;;4.10;;
74577;SDS011;63173;49.086;33.418;2023-06-22T12:45:41;10.10;;;3.75;;
74577;SDS011;63173;49.086;33.418;2023-06-22T12:48:06;6.65;;;3.80;;
74577;SDS011;63173;49.086;33.418;2023-06-22T12:50:33;5.95;;;3.85;;
74577;SDS011;63173;49.086;33.418;2023-06-22T12:52:59;7.47;;;3.90;;
74577;SDS011;63173;49.086;33.418;2023-06-22T12:55:25;7.85;;;3.97;;
74577;SDS011;63173;49.086;33.418;2023-06-22T12:57:50;7.80;;;3.60;;
74577;SDS011;63173;49.086;33.418;2023-06-22T13:00:16;6.28;;;3.40;;
74577;SDS011;63173;49.086;33.418;2023-06-22T13:02:41;5.53;;;3.92;;
74577;SDS011;63173;49.086;33.418;2023-06-22T13:05:07;11.63;;;4.00;;
74577;SDS011;63173;49.086;33.418;2023-06-22T13:07:33;10.63;;;5.47;;
74577;SDS011;63173;49.086;33.418;2023-06-22T13:09:59;8.10;;;4.40;;
74577;SDS011;63173;49.086;33.418;2023-06-22T13:12:24;7.20;;;3.67;;
74577;SDS011;63173;49.086;33.418;2023-06-22T13:14:50;6.18;;;3.65;;
74577;SDS011;63173;49.086;33.418;2023-06-22T13:17:15;7.10;;;3.60;;
74577;SDS011;63173;49.086;33.418;2023-06-22T13:19:41;7.20;;;3.55;;
74577;SDS011;63173;49.086;33.418;2023-06-22T13:24:53;7.07;;;3.60;;
74577;SDS011;63173;49.086;33.418;2023-06-22T13:27:18;6.22;;;3.65;;
74577;SDS011;63173;49.086;33.418;2023-06-22T13:29:44;6.72;;;3.58;;
74577;SDS011;63173;49.086;33.418;2023-06-22T13:32:09;11.07;;;3.80;;
74577;SDS011;63173;49.086;33.418;2023-06-22T13:34:35;7.13;;;3.65;;
74577;SDS011;63173;49.086;33.418;2023-06-22T13:37:00;8.20;;;3.88;;
74577;SDS011;63173;49.086;33.418;2023-06-22T13:39:26;9.43;;;3.30;;
74577;SDS011;63173;49.086;33.418;2023-06-22T13:41:51;11.50;;;3.53;;
74577;SDS011;63173;49.086;33.418;2023-06-22T13:44:16;9.60;;;3.60;;
74577;SDS011;63173;49.086;33.418;2023-06-22T13:46:42;6.95;;;3.58;;
74577;SDS011;63173;49.086;33.418;2023-06-22T13:49:07;7.82;;;3.75;;
74577;SDS011;63173;49.086;33.418;2023-06-22T13:51:33;7.15;;;3.67;;
74577;SDS011;63173;49.086;33.418;2023-06-22T13:53:58;5.00;;;3.80;;
74577;SDS011;63173;49.086;33.418;2023-06-22T13:56:23;6.82;;;3.92;;
74577;SDS011;63173;49.086;33.418;2023-06-22T13:58:49;7.53;;;4.00;;
74577;SDS011;63173;49.086;33.418;2023-06-22T14:01:14;8.10;;;4.00;;
74577;SDS011;63173;49.086;33.418;2023-06-22T14:03:40;4.85;;;3.90;;
74577;SDS011;63173;49.086;33.418;2023-06-22T14:06:06;7.90;;;4.00;;
74577;SDS011;63173;49.086;33.418;2023-06-22T14:08:34;9.48;;;4.30;;
74577;SDS011;63173;49.086;33.418;2023-06-22T14:11:01;7.18;;;3.75;;
74577;SDS011;63173;49.086;33.418;2023-06-22T14:13:26;7.93;;;3.53;;
74577;SDS011;63173;49.086;33.418;2023-06-22T14:15:51;7.25;;;4.07;;
74577;SDS011;63173;49.086;33.418;2023-06-22T14:18:19;7.10;;;4.07;;
74577;SDS011;63173;49.086;33.418;2023-06-22T14:20:44;6.68;;;4.00;;
74577;SDS011;63173;49.086;33.418;2023-06-22T14:23:10;7.65;;;3.42;;
74577;SDS011;63173;49.086;33.418;2023-06-22T14:25:35;6.93;;;3.72;;
74577;SDS011;63173;49.086;33.418;2023-06-22T14:28:01;5.15;;;3.63;;
74577;SDS011;63173;49.086;33.418;2023-06-22T14:30:26;6.93;;;3.72;;
74577;SDS011;63173;49.086;33.418;2023-06-22T14:32:51;5.85;;;3.85;;